Navajo Mountain, Utah
Current Conditions -  °F | °C
As of 4:53 AM on Friday 24 Oct 2014 (Local Time) from KPGA Reporting Station
Clear Clear  
Wind Chill: 55°   Ceiling: Unl
Heat Index: 55°   Visibility: 10mi
Dew Point: 33°   Wind: 0mph
Humidity: 43%   Direction: NA
Pressure: 30.2"   Gusts: NA
Location:  37.02°N, 110.79°W
Report Text: KPGA 241053Z AUTO 00000KT 10SM CLR 13/01 A3020 RMK AO2 SLP181 T01280006
Loading
Personal Weather Stations






























Interactive Weather Map
Tropical Storm Tracking
New forecast layout! Learn more

10-Day Weather Forecast

Advertisements
Track Severe Weather on mobile